Cielo Di Agadir — CNA4589 — position and weather

sailwx.info

Track history (hours):
 
Tides and Currents Weather Stations Pressure Air Temp Water Temp Dewpoint Dewpoint Depression Visibility Wind Speed Wind Dir Waves Ship Positions

Cielo Di Agadir

Last reported at 2018-Jan-12 14:54 UTC. Time now 2018-Jan-18 02:25 UTC.
Position N 35°49' E 014°32'.

Length 184 m; draft 9.8 m.

Type: Ship (hazmat cat A). MMSI: 242123100.

Date/timePositionNaut miles runAvg speedWind from/ knotsBaromVisibWave heightAir tempDewpointWater temp
2018-Jan-12 14:54N 35°49' E 014°32'0 0.0
2018-Jan-12 14:27N 35°49' E 014°32'0 0.0
2018-Jan-12 14:00N 35°49' E 014°32'0 0.0
2018-Jan-12 13:21N 35°49' E 014°32'0 0.0
2018-Jan-12 06:15N 35°49' E 014°32'0 0.0
2018-Jan-12 05:57N 35°49' E 014°32'0 0.0
2018-Jan-12 01:42N 35°49' E 014°32'0 0.1
2018-Jan-12 01:27N 35°49' E 014°32'0 0.0
2018-Jan-11 21:09N 35°49' E 014°32'0 0.0
2018-Jan-11 19:54N 35°49' E 014°32'0 0.0
2018-Jan-11 18:42N 35°49' E 014°32'0 1.5
2018-Jan-11 18:26N 35°49' E 014°32'2 5.7
2018-Jan-11 18:00N 35°48' E 014°35'8 3.4
2018-Jan-11 15:47N 35°51' E 014°44'0 0.0
2018-Jan-11 12:19N 35°51' E 014°44'0 0.8
2018-Jan-11 12:00N 35°51' E 014°44'3 6.8
2018-Jan-11 11:30N 35°49' E 014°40'4 1.3
2018-Jan-11 08:28N 35°51' E 014°44'0 0.1
2018-Jan-11 07:58N 35°51' E 014°44'0 0.1
2018-Jan-11 07:28N 35°51' E 014°44'0 0.0
2018-Jan-11 06:58N 35°51' E 014°44'0 0.1
2018-Jan-11 06:22N 35°51' E 014°44'0 0.0
2018-Jan-11 05:52N 35°51' E 014°44'0 0.1
2018-Jan-11 05:25N 35°51' E 014°44'0 0.0
2018-Jan-11 04:23N 35°51' E 014°44'0 0.0
2018-Jan-11 03:43N 35°51' E 014°44'0 0.0
2018-Jan-11 02:40N 35°51' E 014°44'0 0.0
2018-Jan-11 02:16N 35°51' E 014°44'0 0.1
2018-Jan-11 01:58N 35°51' E 014°44'0 0.0
2018-Jan-11 01:28N 35°51' E 014°44'0 0.1
2018-Jan-11 00:55N 35°51' E 014°44'0 0.0
2018-Jan-11 00:25N 35°51' E 014°44'0 0.0
2018-Jan-10 23:55N 35°51' E 014°44'0 0.0
2018-Jan-10 23:28N 35°51' E 014°44'0 0.0
2018-Jan-10 22:10N 35°51' E 014°44'0 0.0
2018-Jan-10 21:40N 35°51' E 014°44'0 0.1
2018-Jan-10 21:25N 35°51' E 014°44'0 0.0
2018-Jan-10 20:55N 35°51' E 014°44'0 0.0
2018-Jan-10 19:08N 35°51' E 014°44'0 0.1
2018-Jan-10 18:55N 35°51' E 014°44'0 0.0
2018-Jan-10 18:22N 35°51' E 014°44'0 0.0
2018-Jan-10 17:16N 35°51' E 014°44'0 0.0
2018-Jan-10 16:59N 35°51' E 014°44'0 0.0
2018-Jan-10 15:46N 35°51' E 014°44'0 0.0
2018-Jan-10 15:16N 35°51' E 014°44'0 0.1
2018-Jan-10 14:40N 35°51' E 014°44'0 0.0
2018-Jan-10 13:19N 35°51' E 014°44'0 0.1
2018-Jan-10 12:49N 35°51' E 014°44'0 0.0
2018-Jan-10 12:22N 35°51' E 014°44'0 0.1
2018-Jan-10 11:43N 35°51' E 014°44'0 0.1
2018-Jan-10 11:16N 35°51' E 014°44'0 0.3
2018-Jan-10 10:58N 35°51' E 014°44'0 0.1
2018-Jan-10 10:28N 35°51' E 014°44'0 0.1
2018-Jan-10 09:55N 35°51' E 014°44'0 0.0
2018-Jan-10 08:58N 35°51' E 014°44'0 0.1
2018-Jan-10 08:08N 35°51' E 014°44'0 0.2
2018-Jan-10 07:58N 35°51' E 014°44'0 0.0
2018-Jan-10 07:28N 35°51' E 014°44'0 0.0
2018-Jan-10 06:58N 35°51' E 014°44'0 0.1
2018-Jan-10 06:28N 35°51' E 014°44'0 0.1
2018-Jan-10 05:46N 35°51' E 014°44'0 0.0
2018-Jan-09 20:10N 35°51' E 014°43'0 0.1
2018-Jan-09 19:55N 35°51' E 014°43'2 1.4
2018-Jan-09 18:52N 35°53' E 014°43'511.3
2018-Jan-09 18:23N 35°57' E 014°38'512.1
2018-Jan-09 18:00N 35°59' E 014°33'510.3
2018-Jan-09 17:30N 35°60' E 014°27'0 0.9
2018-Jan-09 17:00N 35°60' E 014°26'0 0.0
2018-Jan-09 16:30N 35°60' E 014°26'0 0.0
2018-Jan-09 15:57N 35°60' E 014°26'0 0.0
2018-Jan-09 15:30N 35°60' E 014°26'0 0.0
2018-Jan-09 15:00N 35°60' E 014°26'16 2.5
2018-Jan-09 08:36N 35°50' E 014°42'114.9
2018-Jan-09 08:30N 35°49' E 014°43'815.1
2018-Jan-09 07:59N 35°44' E 014°50'  
Track history (hours):
 
Tides and Currents Weather Stations Pressure Air Temp Water Temp Dewpoint Dewpoint Depression Visibility Wind Speed Wind Dir Waves Ship Positions

Cielo Di Agadir

Last reported at 2018-Jan-12 14:54 UTC. Time now 2018-Jan-18 02:25 UTC.
Position N 35°49' E 014°32'.

Length 184 m; draft 9.8 m.

Type: Ship (hazmat cat A). MMSI: 242123100.

Date/timePositionNaut miles runAvg speedWind from/ knotsBaromVisibWave heightAir tempDewpointWater temp
2018-Jan-12 14:54N 35°49' E 014°32'0 0.0
2018-Jan-12 14:27N 35°49' E 014°32'0 0.0
2018-Jan-12 14:00N 35°49' E 014°32'0 0.0
2018-Jan-12 13:21N 35°49' E 014°32'0 0.0
2018-Jan-12 06:15N 35°49' E 014°32'0 0.0
2018-Jan-12 05:57N 35°49' E 014°32'0 0.0
2018-Jan-12 01:42N 35°49' E 014°32'0 0.1
2018-Jan-12 01:27N 35°49' E 014°32'0 0.0
2018-Jan-11 21:09N 35°49' E 014°32'0 0.0
2018-Jan-11 19:54N 35°49' E 014°32'0 0.0
2018-Jan-11 18:42N 35°49' E 014°32'0 1.5
2018-Jan-11 18:26N 35°49' E 014°32'2 5.7
2018-Jan-11 18:00N 35°48' E 014°35'8 3.4
2018-Jan-11 15:47N 35°51' E 014°44'0 0.0
2018-Jan-11 12:19N 35°51' E 014°44'0 0.8
2018-Jan-11 12:00N 35°51' E 014°44'3 6.8
2018-Jan-11 11:30N 35°49' E 014°40'4 1.3
2018-Jan-11 08:28N 35°51' E 014°44'0 0.1
2018-Jan-11 07:58N 35°51' E 014°44'0 0.1
2018-Jan-11 07:28N 35°51' E 014°44'0 0.0
2018-Jan-11 06:58N 35°51' E 014°44'0 0.1
2018-Jan-11 06:22N 35°51' E 014°44'0 0.0
2018-Jan-11 05:52N 35°51' E 014°44'0 0.1
2018-Jan-11 05:25N 35°51' E 014°44'0 0.0
2018-Jan-11 04:23N 35°51' E 014°44'0 0.0
2018-Jan-11 03:43N 35°51' E 014°44'0 0.0
2018-Jan-11 02:40N 35°51' E 014°44'0 0.0
2018-Jan-11 02:16N 35°51' E 014°44'0 0.1
2018-Jan-11 01:58N 35°51' E 014°44'0 0.0
2018-Jan-11 01:28N 35°51' E 014°44'0 0.1
2018-Jan-11 00:55N 35°51' E 014°44'0 0.0
2018-Jan-11 00:25N 35°51' E 014°44'0 0.0
2018-Jan-10 23:55N 35°51' E 014°44'0 0.0
2018-Jan-10 23:28N 35°51' E 014°44'0 0.0
2018-Jan-10 22:10N 35°51' E 014°44'0 0.0
2018-Jan-10 21:40N 35°51' E 014°44'0 0.1
2018-Jan-10 21:25N 35°51' E 014°44'0 0.0
2018-Jan-10 20:55N 35°51' E 014°44'0 0.0
2018-Jan-10 19:08N 35°51' E 014°44'0 0.1
2018-Jan-10 18:55N 35°51' E 014°44'0 0.0
2018-Jan-10 18:22N 35°51' E 014°44'0 0.0
2018-Jan-10 17:16N 35°51' E 014°44'0 0.0
2018-Jan-10 16:59N 35°51' E 014°44'0 0.0
2018-Jan-10 15:46N 35°51' E 014°44'0 0.0
2018-Jan-10 15:16N 35°51' E 014°44'0 0.1
2018-Jan-10 14:40N 35°51' E 014°44'0 0.0
2018-Jan-10 13:19N 35°51' E 014°44'0 0.1
2018-Jan-10 12:49N 35°51' E 014°44'0 0.0
2018-Jan-10 12:22N 35°51' E 014°44'0 0.1
2018-Jan-10 11:43N 35°51' E 014°44'0 0.1
2018-Jan-10 11:16N 35°51' E 014°44'0 0.3
2018-Jan-10 10:58N 35°51' E 014°44'0 0.1
2018-Jan-10 10:28N 35°51' E 014°44'0 0.1
2018-Jan-10 09:55N 35°51' E 014°44'0 0.0
2018-Jan-10 08:58N 35°51' E 014°44'0 0.1
2018-Jan-10 08:08N 35°51' E 014°44'0 0.2
2018-Jan-10 07:58N 35°51' E 014°44'0 0.0
2018-Jan-10 07:28N 35°51' E 014°44'0 0.0
2018-Jan-10 06:58N 35°51' E 014°44'0 0.1
2018-Jan-10 06:28N 35°51' E 014°44'0 0.1
2018-Jan-10 05:46N 35°51' E 014°44'0 0.0
2018-Jan-09 20:10N 35°51' E 014°43'0 0.1
2018-Jan-09 19:55N 35°51' E 014°43'2 1.4
2018-Jan-09 18:52N 35°53' E 014°43'511.3
2018-Jan-09 18:23N 35°57' E 014°38'512.1
2018-Jan-09 18:00N 35°59' E 014°33'510.3
2018-Jan-09 17:30N 35°60' E 014°27'0 0.9
2018-Jan-09 17:00N 35°60' E 014°26'0 0.0
2018-Jan-09 16:30N 35°60' E 014°26'0 0.0
2018-Jan-09 15:57N 35°60' E 014°26'0 0.0
2018-Jan-09 15:30N 35°60' E 014°26'0 0.0
2018-Jan-09 15:00N 35°60' E 014°26'16 2.5
2018-Jan-09 08:36N 35°50' E 014°42'114.9
2018-Jan-09 08:30N 35°49' E 014°43'815.1
2018-Jan-09 07:59N 35°44' E 014°50'  

Dump ship's entire track history